createdAt,value
2019-04-21T00:02:01.386Z,6.33
2019-04-21T00:04:43.417Z,6.80
2019-04-21T00:07:21.770Z,7.40
2019-04-21T00:09:56.400Z,7.10
2019-04-21T00:12:18.486Z,6.47
2019-04-21T00:14:43.588Z,6.30
2019-04-21T00:17:11.034Z,6.50
2019-04-21T00:19:39.579Z,6.63
2019-04-21T00:22:24.769Z,7.33
2019-04-21T00:24:56.240Z,6.87
2019-04-21T00:27:28.104Z,6.20
2019-04-21T00:29:58.154Z,6.20
2019-04-21T00:32:25.446Z,7.40
2019-04-21T00:34:50.366Z,6.60
2019-04-21T00:37:25.963Z,6.70
2019-04-21T00:40:06.567Z,7.00
2019-04-21T00:42:34.430Z,5.90
2019-04-21T00:44:58.674Z,6.30
2019-04-21T00:47:35.858Z,6.93
2019-04-21T00:50:05.322Z,7.20
2019-04-21T00:52:57.817Z,6.40
2019-04-21T00:55:32.476Z,6.70
2019-04-21T00:57:57.146Z,5.70
2019-04-21T01:00:42.230Z,6.40
2019-04-21T01:02:59.406Z,6.43
2019-04-21T01:05:28.296Z,6.37
2019-04-21T01:07:58.266Z,6.63
2019-04-21T01:10:21.070Z,5.73
2019-04-21T01:13:02.982Z,6.53
2019-04-21T01:15:39.359Z,6.73
2019-04-21T01:17:59.038Z,6.70
2019-04-21T01:20:17.419Z,6.27
2019-04-21T01:22:41.655Z,6.27
2019-04-21T01:25:19.976Z,6.23
2019-04-21T01:27:59.097Z,6.30
2019-04-21T01:30:39.027Z,7.10
2019-04-21T01:33:09.466Z,6.03
2019-04-21T01:35:39.754Z,5.93
2019-04-21T01:38:16.685Z,6.00
2019-04-21T01:40:42.848Z,6.60
2019-04-21T01:43:07.650Z,5.80
2019-04-21T01:45:40.062Z,6.77
2019-04-21T01:48:05.708Z,6.23
2019-04-21T01:50:42.665Z,6.03
2019-04-21T01:53:31.089Z,6.50
2019-04-21T01:56:18.431Z,6.40
2019-04-21T01:58:39.797Z,7.20
2019-04-21T02:01:26.222Z,6.90
2019-04-21T02:04:07.251Z,6.70
2019-04-21T02:06:27.513Z,5.80
2019-04-21T02:08:51.508Z,6.60
2019-04-21T02:11:33.812Z,6.60
2019-04-21T02:14:08.387Z,6.57
2019-04-21T02:16:28.270Z,7.10
2019-04-21T02:18:58.147Z,6.80
2019-04-21T02:21:21.686Z,6.63
2019-04-21T02:24:05.469Z,6.77
2019-04-21T02:26:37.629Z,6.23
2019-04-21T02:29:10.151Z,6.60
2019-04-21T02:31:48.838Z,6.97
2019-04-21T02:34:25.893Z,7.20
2019-04-21T02:39:16.685Z,6.77
2019-04-21T02:41:56.142Z,6.47
2019-04-21T02:44:32.717Z,6.43
2019-04-21T02:46:46.288Z,6.93
2019-04-21T02:49:34.615Z,7.03
2019-04-21T02:54:42.053Z,6.37
2019-04-21T02:56:51.459Z,6.60
2019-04-21T02:59:33.740Z,6.00
2019-04-21T03:04:42.651Z,6.50
2019-04-21T03:07:24.995Z,7.40
2019-04-21T03:09:45.926Z,6.33
2019-04-21T03:17:23.883Z,6.30
2019-04-21T03:19:49.992Z,6.07
2019-04-21T03:22:24.776Z,7.20
2019-04-21T03:30:04.246Z,6.30
2019-04-21T03:40:03.179Z,6.72
2019-04-21T03:44:56.878Z,6.33
2019-04-21T03:50:04.723Z,6.37
2019-04-21T03:52:31.198Z,6.80
2019-04-21T04:00:49.895Z,6.25
2019-04-21T04:03:42.226Z,6.72
2019-04-21T04:06:03.796Z,6.53
2019-04-21T04:11:12.030Z,6.90
2019-04-21T04:13:47.701Z,5.72
2019-04-21T04:16:10.249Z,5.73
2019-04-21T04:18:49.164Z,6.27
2019-04-21T04:21:12.335Z,5.85
2019-04-21T04:23:45.240Z,7.45
2019-04-21T04:28:50.137Z,6.10
2019-04-21T04:33:48.604Z,6.33
2019-04-21T04:36:30.443Z,5.90
2019-04-21T04:41:42.124Z,6.08
2019-04-21T04:44:43.746Z,6.17
2019-04-21T04:46:28.555Z,5.63
2019-04-21T04:49:06.082Z,6.90
2019-04-21T04:51:39.931Z,5.90
2019-04-21T04:53:56.197Z,6.10
2019-04-21T04:56:54.343Z,5.60
2019-04-21T05:01:34.864Z,6.23
2019-04-21T05:09:13.055Z,5.60
2019-04-21T05:11:50.019Z,5.90
2019-04-21T05:14:07.581Z,6.40
2019-04-21T05:16:42.671Z,5.87
2019-04-21T05:21:34.409Z,5.83
2019-04-21T05:24:07.266Z,5.97
2019-04-21T05:26:18.984Z,6.50
2019-04-21T05:28:47.516Z,5.97
2019-04-21T05:31:31.718Z,6.27
2019-04-21T05:34:04.101Z,6.30
2019-04-21T05:36:37.879Z,5.70
2019-04-21T05:39:10.658Z,6.13
2019-04-21T05:41:36.238Z,5.53
2019-04-21T05:44:21.033Z,5.27
2019-04-21T05:47:05.533Z,6.43
2019-04-21T05:49:20.522Z,6.23
2019-04-21T05:51:57.495Z,5.90
2019-04-21T05:54:39.032Z,6.27
2019-04-21T05:57:05.965Z,6.93
2019-04-21T05:59:40.132Z,5.80
2019-04-21T06:02:19.094Z,5.40
2019-04-21T06:05:01.324Z,5.80
2019-04-21T06:07:21.556Z,5.20
2019-04-21T06:09:48.904Z,6.20
2019-04-21T06:12:08.730Z,5.10
2019-04-21T06:14:49.426Z,6.17
2019-04-21T06:17:19.308Z,5.70
2019-04-21T06:19:49.350Z,5.80
2019-04-21T06:22:17.766Z,6.10
2019-04-21T06:25:06.966Z,4.60
2019-04-21T06:27:15.880Z,5.83
2019-04-21T06:29:49.160Z,5.07
2019-04-21T06:35:07.222Z,5.80
2019-04-21T06:40:03.293Z,5.60
2019-04-21T06:42:19.528Z,5.33
2019-04-21T06:47:33.131Z,6.03
2019-04-21T06:49:50.977Z,5.67
2019-04-21T06:52:41.898Z,6.10
2019-04-21T06:55:00.085Z,5.83
2019-04-21T06:57:30.970Z,5.60
2019-04-21T06:59:51.041Z,5.87
2019-04-21T07:04:54.763Z,5.93
2019-04-21T07:07:26.377Z,5.23
2019-04-21T07:10:12.160Z,5.27
2019-04-21T07:12:23.185Z,5.10
2019-04-21T07:14:59.044Z,5.30
2019-04-21T07:17:29.363Z,6.00
2019-04-21T07:20:02.186Z,5.50
2019-04-21T07:22:31.237Z,4.80
2019-04-21T07:25:03.002Z,5.20
2019-04-21T07:27:35.217Z,5.33
2019-04-21T07:30:04.723Z,5.77
2019-04-21T07:32:33.675Z,5.60
2019-04-21T07:35:03.693Z,4.70
2019-04-21T07:37:30.680Z,4.80
2019-04-21T07:40:03.746Z,4.97
2019-04-21T07:42:28.091Z,4.60
2019-04-21T07:44:57.598Z,5.80
2019-04-21T07:47:46.072Z,5.17
2019-04-21T07:50:20.608Z,5.13
2019-04-21T07:53:05.063Z,5.23
2019-04-21T07:57:45.687Z,4.87
2019-04-21T08:00:29.593Z,5.20
2019-04-21T08:02:58.166Z,5.33
2019-04-21T08:05:28.121Z,5.50
2019-04-21T08:07:56.039Z,5.90
2019-04-21T08:10:24.294Z,4.60
2019-04-21T08:12:55.645Z,4.50
2019-04-21T08:15:31.046Z,4.50
2019-04-21T08:17:53.583Z,5.20
2019-04-21T08:20:24.726Z,5.25
2019-04-21T08:22:59.001Z,4.35
2019-04-21T08:25:56.291Z,5.30
2019-04-21T08:28:01.462Z,5.10
2019-04-21T08:30:32.290Z,5.03
2019-04-21T08:33:08.847Z,4.67
2019-04-21T08:35:52.926Z,5.85
2019-04-21T08:38:05.302Z,6.08
2019-04-21T08:40:36.896Z,5.83
2019-04-21T08:43:02.853Z,5.62
2019-04-21T08:45:40.501Z,4.50
2019-04-21T08:48:05.909Z,4.80
2019-04-21T08:50:30.644Z,5.15
2019-04-21T08:53:07.843Z,5.22
2019-04-21T08:56:05.750Z,4.67
2019-04-21T08:58:34.439Z,4.78
2019-04-21T09:01:23.920Z,5.35
2019-04-21T09:03:56.512Z,4.10
2019-04-21T09:06:40.547Z,4.97
2019-04-21T09:08:58.021Z,4.42
2019-04-21T09:11:22.538Z,5.28
2019-04-21T09:13:57.248Z,5.25
2019-04-21T09:16:27.848Z,5.80
2019-04-21T09:18:52.804Z,4.62
2019-04-21T09:21:31.322Z,5.55
2019-04-21T09:23:55.963Z,4.58
2019-04-21T09:26:29.539Z,6.12
2019-04-21T09:28:55.979Z,4.55
2019-04-21T09:31:12.432Z,4.45
2019-04-21T09:33:47.160Z,4.60
2019-04-21T09:36:15.455Z,4.35
2019-04-21T09:38:45.608Z,4.58
2019-04-21T09:41:17.527Z,4.30
2019-04-21T09:43:49.199Z,4.72
2019-04-21T09:46:14.342Z,4.10
2019-04-21T09:48:52.779Z,4.22
2019-04-21T09:51:13.980Z,5.05
2019-04-21T09:53:48.438Z,4.80
2019-04-21T09:56:16.674Z,5.10
2019-04-21T09:58:49.411Z,5.45
2019-04-21T10:01:22.648Z,4.97
2019-04-21T10:03:48.715Z,5.22
2019-04-21T10:06:17.512Z,4.63
2019-04-21T10:08:50.432Z,5.50
2019-04-21T10:11:19.545Z,5.87
2019-04-21T10:13:48.788Z,4.83
2019-04-21T10:16:19.642Z,5.50
2019-04-21T10:18:48.532Z,5.27
2019-04-21T10:21:17.488Z,5.63
2019-04-21T10:23:46.381Z,5.30
2019-04-21T10:26:16.504Z,6.23
2019-04-21T10:28:46.861Z,5.80
2019-04-21T10:31:16.697Z,6.70
2019-04-21T10:33:46.280Z,6.47
2019-04-21T10:36:15.245Z,8.17
2019-04-21T10:38:48.753Z,7.33
2019-04-21T10:41:15.127Z,7.10
2019-04-21T10:43:45.187Z,7.40
2019-04-21T10:46:14.932Z,5.63
2019-04-21T10:48:44.402Z,7.97
2019-04-21T10:51:13.291Z,5.93
2019-04-21T10:53:45.259Z,7.20
2019-04-21T10:56:23.017Z,6.30
2019-04-21T10:58:46.182Z,7.30
2019-04-21T11:01:16.874Z,6.57
2019-04-21T11:03:53.396Z,7.57
2019-04-21T11:06:22.288Z,6.20
2019-04-21T11:08:55.418Z,7.07
2019-04-21T11:11:21.857Z,7.47
2019-04-21T11:13:50.744Z,6.97
2019-04-21T11:16:19.625Z,7.43
2019-04-21T11:18:48.516Z,7.00
2019-04-21T11:21:18.661Z,7.40
2019-04-21T11:23:48.016Z,7.23
2019-04-21T11:26:18.053Z,7.80
2019-04-21T11:28:47.311Z,6.80
2019-04-21T11:31:16.247Z,7.83
2019-04-21T11:33:45.418Z,7.10
2019-04-21T11:36:15.474Z,7.57
2019-04-21T11:39:08.385Z,6.80
2019-04-21T11:41:29.736Z,7.70
2019-04-21T11:43:59.218Z,8.00
2019-04-21T11:46:28.641Z,7.53
2019-04-21T11:48:58.054Z,6.60
2019-04-21T11:51:27.025Z,7.20
2019-04-21T11:53:56.933Z,6.87
2019-04-21T11:56:27.126Z,7.60
2019-04-21T11:58:57.567Z,6.50
2019-04-21T12:01:28.007Z,8.17
2019-04-21T12:03:57.990Z,7.03
2019-04-21T12:06:35.060Z,6.50
2019-04-21T12:09:01.590Z,7.00
2019-04-21T12:11:31.442Z,6.40
2019-04-21T12:14:00.493Z,6.53
2019-04-21T12:16:30.580Z,7.77
2019-04-21T12:19:00.932Z,6.57
2019-04-21T12:21:45.102Z,5.83
2019-04-21T12:24:00.712Z,7.27
2019-04-21T12:26:29.609Z,7.57
2019-04-21T12:28:59.622Z,7.20
2019-04-21T12:31:30.135Z,7.20
2019-04-21T12:34:03.704Z,6.50
2019-04-21T12:36:33.833Z,6.13
2019-04-21T12:39:05.101Z,5.57
2019-04-21T12:41:33.292Z,6.60
2019-04-21T12:44:02.511Z,7.17
2019-04-21T12:46:31.863Z,6.17
2019-04-21T12:49:02.043Z,6.90
2019-04-21T12:51:31.119Z,7.13
2019-04-21T12:54:01.529Z,5.60
2019-04-21T12:56:31.605Z,6.13
2019-04-21T12:59:01.555Z,4.83
2019-04-21T13:01:30.730Z,6.50
2019-04-21T13:03:59.697Z,6.60
2019-04-21T13:06:29.601Z,6.50
2019-04-21T13:09:05.140Z,8.57
2019-04-21T13:11:29.112Z,6.37
2019-04-21T13:13:58.001Z,5.80
2019-04-21T13:16:27.570Z,6.30
2019-04-21T13:18:57.608Z,5.70
2019-04-21T13:21:27.773Z,6.03
2019-04-21T13:23:58.825Z,6.93
2019-04-21T13:26:37.170Z,7.40
2019-04-21T13:28:58.445Z,6.87
2019-04-21T13:31:27.419Z,6.03
2019-04-21T13:33:57.807Z,5.80
2019-04-21T13:36:27.649Z,6.20
2019-04-21T13:39:35.998Z,5.60
2019-04-21T13:41:42.854Z,5.27
2019-04-21T13:44:15.729Z,4.90
2019-04-21T13:46:46.977Z,5.90
2019-04-21T13:49:19.025Z,6.17
2019-04-21T13:51:48.178Z,6.13
2019-04-21T13:54:18.050Z,5.97
2019-04-21T13:56:47.008Z,5.77
2019-04-21T13:59:16.114Z,6.40
2019-04-21T14:01:45.671Z,5.87
2019-04-21T14:04:15.903Z,5.70
2019-04-21T14:06:45.056Z,6.10
2019-04-21T14:09:13.949Z,6.17
2019-04-21T14:11:43.449Z,5.73
2019-04-21T14:14:12.593Z,5.00
2019-04-21T14:16:42.333Z,5.47
2019-04-21T14:19:11.275Z,5.10
2019-04-21T14:21:41.240Z,5.83
2019-04-21T14:24:10.839Z,5.73
2019-04-21T14:26:40.464Z,5.37
2019-04-21T14:29:11.092Z,5.93
2019-04-21T14:31:40.250Z,5.93
2019-04-21T14:34:10.085Z,7.23
2019-04-21T14:36:39.258Z,5.43
2019-04-21T14:39:10.568Z,5.80
2019-04-21T14:41:40.325Z,5.30
2019-04-21T14:44:09.347Z,4.80
2019-04-21T14:46:39.746Z,5.50
2019-04-21T14:49:25.052Z,5.60
2019-04-21T14:52:05.095Z,5.47
2019-04-21T14:54:36.446Z,5.27
2019-04-21T14:57:05.499Z,4.50
2019-04-21T14:59:35.214Z,5.20
2019-04-21T15:02:05.624Z,4.40
2019-04-21T15:04:35.599Z,5.27
2019-04-21T15:07:05.608Z,4.23
2019-04-21T15:09:37.164Z,5.20
2019-04-21T15:12:05.700Z,4.53
2019-04-21T15:14:35.913Z,4.80
2019-04-21T15:17:05.112Z,4.77
2019-04-21T15:19:34.809Z,5.13
2019-04-21T15:22:03.879Z,5.00
2019-04-21T15:24:34.148Z,5.67
2019-04-21T15:27:03.144Z,4.93
2019-04-21T15:29:33.011Z,5.33
2019-04-21T15:32:01.944Z,4.43
2019-04-21T15:34:31.870Z,5.03
2019-04-21T15:37:01.991Z,4.53
2019-04-21T15:39:31.817Z,4.00
2019-04-21T15:42:00.819Z,4.37
2019-04-21T15:44:30.512Z,4.00
2019-04-21T15:46:59.808Z,4.87
2019-04-21T15:49:40.562Z,4.27
2019-04-21T15:52:01.930Z,4.73
2019-04-21T15:54:32.001Z,4.30
2019-04-21T15:57:02.862Z,4.20
2019-04-21T15:59:36.826Z,4.77
2019-04-21T16:02:24.564Z,4.30
2019-04-21T16:04:54.849Z,4.30
2019-04-21T16:07:24.519Z,4.50
2019-04-21T16:09:54.365Z,3.60
2019-04-21T16:12:23.268Z,4.20
2019-04-21T16:14:52.550Z,3.87
2019-04-21T16:17:21.468Z,3.87
2019-04-21T16:19:50.336Z,3.60
2019-04-21T16:22:19.177Z,3.80
2019-04-21T16:24:48.026Z,3.30
2019-04-21T16:27:17.405Z,3.40
2019-04-21T16:29:47.839Z,3.33
2019-04-21T16:32:18.437Z,3.80
2019-04-21T16:34:54.224Z,3.67
2019-04-21T16:37:19.295Z,3.37
2019-04-21T16:39:49.422Z,3.10
2019-04-21T16:42:18.491Z,4.40
2019-04-21T16:44:47.347Z,4.60
2019-04-21T16:47:19.319Z,4.70
2019-04-21T16:49:47.639Z,5.13
2019-04-21T16:52:18.337Z,5.20
2019-04-21T16:54:49.714Z,7.70
2019-04-21T16:57:21.641Z,9.20
2019-04-21T16:59:54.902Z,8.17
2019-04-21T17:02:24.813Z,7.03
2019-04-21T17:04:54.180Z,5.70
2019-04-21T17:07:24.130Z,4.80
2019-04-21T17:09:54.756Z,4.07
2019-04-21T17:12:24.580Z,4.30
2019-04-21T17:15:10.709Z,3.53
2019-04-21T17:17:47.501Z,3.27
2019-04-21T17:20:11.874Z,3.63
2019-04-21T17:22:27.869Z,3.47
2019-04-21T17:24:58.141Z,3.80
2019-04-21T17:27:27.295Z,3.50
2019-04-21T17:29:56.742Z,2.77
2019-04-21T17:32:33.572Z,3.60
2019-04-21T17:34:58.004Z,3.53
2019-04-21T17:37:29.185Z,6.53
2019-04-21T17:39:58.841Z,7.80
2019-04-21T17:42:36.305Z,8.77
2019-04-21T17:44:59.764Z,4.90
2019-04-21T17:47:41.553Z,3.90
2019-04-21T17:50:07.771Z,4.40
2019-04-21T17:52:45.947Z,4.30
2019-04-21T17:55:25.076Z,3.30
2019-04-21T17:58:07.712Z,5.50
2019-04-21T18:00:57.688Z,4.57
2019-04-21T18:03:22.760Z,4.10
2019-04-21T18:05:43.520Z,4.80
2019-04-21T18:08:13.975Z,11.30
2019-04-21T18:10:43.351Z,12.87
2019-04-21T18:13:03.833Z,14.17
2019-04-21T18:15:42.437Z,45.63
2019-04-21T18:17:57.023Z,37.40
2019-04-21T18:20:28.060Z,16.53
2019-04-21T18:23:09.630Z,10.10
2019-04-21T18:25:45.269Z,10.57
2019-04-21T18:28:06.406Z,8.00
2019-04-21T18:30:48.867Z,15.63
2019-04-21T18:33:25.387Z,11.60
2019-04-21T18:36:05.070Z,6.90
2019-04-21T18:38:59.681Z,5.00
2019-04-21T18:41:13.361Z,3.90
2019-04-21T18:44:15.167Z,3.93
2019-04-21T18:46:46.246Z,4.10
2019-04-21T18:49:00.824Z,3.57
2019-04-21T18:51:40.305Z,4.37
2019-04-21T18:54:22.611Z,4.07
2019-04-21T18:56:33.624Z,4.67
2019-04-21T18:59:02.799Z,4.13
2019-04-21T19:01:34.833Z,3.83
2019-04-21T19:04:07.558Z,4.00
2019-04-21T19:06:45.363Z,3.60
2019-04-21T19:09:34.145Z,4.60
2019-04-21T19:11:51.842Z,3.90
2019-04-21T19:14:31.997Z,4.20
2019-04-21T19:17:29.171Z,3.90
2019-04-21T19:19:44.164Z,4.50
2019-04-21T19:22:04.976Z,4.07
2019-04-21T19:24:41.240Z,3.87
2019-04-21T19:27:08.204Z,4.67
2019-04-21T19:29:40.403Z,4.47
2019-04-21T19:32:08.748Z,4.30
2019-04-21T19:34:24.519Z,4.17
2019-04-21T19:36:55.817Z,4.67
2019-04-21T19:39:34.961Z,4.53
2019-04-21T19:42:00.567Z,4.63
2019-04-21T19:44:38.296Z,4.40
2019-04-21T19:47:13.829Z,3.83
2019-04-21T19:49:45.702Z,4.47
2019-04-21T19:51:59.602Z,3.83
2019-04-21T19:54:29.954Z,4.57
2019-04-21T19:56:53.364Z,4.70
2019-04-21T19:59:32.533Z,4.33
2019-04-21T20:01:54.038Z,4.93
2019-04-21T20:04:31.670Z,5.50
2019-04-21T20:07:02.789Z,4.97
2019-04-21T20:09:40.168Z,6.63
2019-04-21T20:12:13.150Z,5.93
2019-04-21T20:14:57.597Z,7.07
2019-04-21T20:17:08.475Z,5.80
2019-04-21T20:19:26.858Z,6.33
2019-04-21T20:21:56.967Z,6.67
2019-04-21T20:24:28.818Z,6.60
2019-04-21T20:27:06.832Z,5.53
2019-04-21T20:29:46.941Z,4.90
2019-04-21T20:32:26.349Z,5.73
2019-04-21T20:34:54.608Z,5.20
2019-04-21T20:37:14.850Z,5.97
2019-04-21T20:39:39.145Z,6.00
2019-04-21T20:42:18.074Z,5.20
2019-04-21T20:44:52.890Z,5.23
2019-04-21T20:47:11.461Z,4.80
2019-04-21T20:49:39.766Z,4.23
2019-04-21T20:52:24.283Z,4.63
2019-04-21T20:54:47.920Z,5.53
2019-04-21T20:57:19.009Z,4.80
2019-04-21T20:59:46.692Z,5.00
2019-04-21T21:02:21.918Z,5.00
2019-04-21T21:04:42.430Z,5.27
2019-04-21T21:07:36.376Z,4.57
2019-04-21T21:10:00.143Z,5.00
2019-04-21T21:12:31.780Z,4.90
2019-04-21T21:14:51.886Z,4.83
2019-04-21T21:17:39.297Z,4.40
2019-04-21T21:20:02.724Z,4.40
2019-04-21T21:22:22.806Z,5.20
2019-04-21T21:25:00.166Z,4.50
2019-04-21T21:27:25.510Z,4.80
2019-04-21T21:29:56.064Z,4.80
2019-04-21T21:32:35.051Z,4.73
2019-04-21T21:34:56.866Z,4.90
2019-04-21T21:37:36.268Z,4.17
2019-04-21T21:40:08.238Z,5.10
2019-04-21T21:42:13.878Z,4.60
2019-04-21T21:44:49.512Z,5.70
2019-04-21T21:47:29.156Z,5.43
2019-04-21T21:49:55.467Z,5.13
2019-04-21T21:52:29.746Z,5.10
2019-04-21T21:54:45.625Z,4.80
2019-04-21T21:57:14.710Z,5.23
2019-04-21T21:59:45.304Z,5.50
2019-04-21T22:02:17.082Z,5.37
2019-04-21T22:04:54.756Z,5.37
2019-04-21T22:07:17.805Z,5.20
2019-04-21T22:09:46.276Z,4.80
2019-04-21T22:12:16.095Z,5.20
2019-04-21T22:14:50.023Z,4.97
2019-04-21T22:17:28.955Z,5.07
2019-04-21T22:20:08.522Z,5.50
2019-04-21T22:22:32.103Z,4.93
2019-04-21T22:24:59.343Z,5.03
2019-04-21T22:27:18.934Z,5.53
2019-04-21T22:29:52.823Z,5.00
2019-04-21T22:32:25.006Z,4.77
2019-04-21T22:34:54.765Z,4.87
2019-04-21T22:37:35.221Z,4.50
2019-04-21T22:40:04.452Z,4.70
2019-04-21T22:42:26.753Z,4.60
2019-04-21T22:44:52.328Z,4.80
2019-04-21T22:47:26.981Z,5.33
2019-04-21T22:49:52.803Z,4.70
2019-04-21T22:52:25.853Z,4.60
2019-04-21T22:54:53.802Z,4.47
2019-04-21T22:57:26.592Z,4.70
2019-04-21T23:00:00.915Z,4.77
2019-04-21T23:02:29.486Z,4.93
2019-04-21T23:04:58.148Z,4.70
2019-04-21T23:07:26.321Z,4.60
2019-04-21T23:09:55.534Z,5.00
2019-04-21T23:12:28.046Z,5.00
2019-04-21T23:15:01.877Z,4.63
2019-04-21T23:17:46.606Z,4.27
2019-04-21T23:20:17.892Z,4.80
2019-04-21T23:22:51.442Z,4.87
2019-04-21T23:25:13.661Z,6.07
2019-04-21T23:27:47.003Z,4.97
2019-04-21T23:30:26.442Z,5.23
2019-04-21T23:32:40.649Z,4.63
2019-04-21T23:35:09.234Z,5.57
2019-04-21T23:37:34.136Z,4.33
2019-04-21T23:40:08.573Z,5.10
2019-04-21T23:42:37.100Z,4.20
2019-04-21T23:45:06.630Z,4.93
2019-04-21T23:47:48.059Z,5.33
2019-04-21T23:50:21.273Z,4.83
2019-04-21T23:52:41.473Z,4.80
2019-04-21T23:55:11.521Z,5.03
2019-04-21T23:57:46.252Z,5.13
